Time;durP1;ratioP1;P1;durP2;ratioP2;P2;SDS_P1;SDS_P2;PMS_P1;PMS_P2;Temp;Humidity;BMP_temperature;BMP_pressure;BME280_temperature;BME280_humidity;BME280_pressure;Samples;Min_cycle;Max_cycle;Signal;HPM_P1;HPM_P2
2021/10/23 00:00:33;;;;;;;12.70;5.90;;;5.60;75.40;;;;;;5033961;28;20029;-75
2021/10/23 00:02:58;;;;;;;17.42;6.60;;;5.50;76.10;;;;;;5032919;28;20060;-76
2021/10/23 00:05:24;;;;;;;21.35;8.40;;;5.50;76.30;;;;;;5033038;28;20049;-76
2021/10/23 00:07:50;;;;;;;13.35;6.57;;;5.50;76.60;;;;;;5032895;28;20064;-75
2021/10/23 00:10:15;;;;;;;13.77;6.60;;;5.50;77.00;;;;;;5034142;28;20449;-75
2021/10/23 00:12:41;;;;;;;18.23;6.22;;;5.50;77.50;;;;;;5032880;28;20049;-75
2021/10/23 00:15:07;;;;;;;11.13;4.75;;;5.40;77.90;;;;;;5032698;28;20033;-74
2021/10/23 00:17:33;;;;;;;11.80;5.28;;;5.40;78.60;;;;;;5034068;28;20056;-74
2021/10/23 00:20:00;;;;;;;12.30;4.50;;;5.40;79.40;;;;;;5033810;28;20087;-74
2021/10/23 00:22:29;;;;;;;9.40;4.35;;;5.40;80.90;;;;;;5033998;28;20025;-75
2021/10/23 00:24:55;;;;;;;11.27;5.30;;;5.40;81.20;;;;;;5032511;28;20116;-74
2021/10/23 00:27:21;;;;;;;12.00;4.57;;;5.50;81.40;;;;;;5032682;28;20029;-75
2021/10/23 00:29:47;;;;;;;11.63;5.53;;;5.40;81.20;;;;;;5032357;28;20037;-74
2021/10/23 00:32:13;;;;;;;7.07;3.92;;;5.40;81.80;;;;;;5033806;28;20059;-74
2021/10/23 00:34:39;;;;;;;8.40;2.78;;;5.40;83.70;;;;;;5033647;28;20471;-74
2021/10/23 00:37:04;;;;;;;6.47;2.88;;;5.70;87.90;;;;;;5033755;28;20028;-75
2021/10/23 00:39:30;;;;;;;6.53;2.03;;;5.90;87.80;;;;;;5032376;28;20021;-74
2021/10/23 00:41:56;;;;;;;4.93;2.10;;;6.20;86.30;;;;;;5033544;28;20072;-74
2021/10/23 00:44:37;;;;;;;5.43;2.42;;;6.40;84.40;;;;;;5032323;28;20091;-74
2021/10/23 00:47:03;;;;;;;2.53;1.92;;;6.50;84.10;;;;;;5033575;28;20032;-74
2021/10/23 00:49:29;;;;;;;7.05;2.83;;;6.60;87.50;;;;;;5033571;28;20486;-74
2021/10/23 00:51:57;;;;;;;3.92;1.90;;;6.50;99.90;;;;;;5033408;28;20035;-75
2021/10/23 00:54:24;;;;;;;2.22;1.38;;;6.40;99.90;;;;;;5032059;28;20410;-75
2021/10/23 00:56:50;;;;;;;2.10;1.90;;;6.20;99.90;;;;;;5031683;28;20376;-74
2021/10/23 00:59:16;;;;;;;2.75;1.80;;;6.20;99.90;;;;;;5031411;28;20025;-75
2021/10/23 01:01:41;;;;;;;1.48;1.38;;;6.10;99.90;;;;;;5033420;28;20039;-75
2021/10/23 01:04:07;;;;;;;1.95;1.85;;;6.00;99.90;;;;;;5033175;28;20079;-75
2021/10/23 01:06:34;;;;;;;2.22;2.13;;;6.00;99.90;;;;;;5033533;28;20045;-76
2021/10/23 01:09:00;;;;;;;2.58;1.90;;;5.90;99.90;;;;;;5031779;28;20013;-75
2021/10/23 01:11:27;;;;;;;1.80;1.70;;;5.80;99.90;;;;;;5031178;28;20116;-75
2021/10/23 01:13:53;;;;;;;1.70;1.60;;;5.80;99.90;;;;;;5031654;28;20024;-75
2021/10/23 01:16:18;;;;;;;4.70;2.88;;;5.70;99.90;;;;;;5031849;28;20029;-75
2021/10/23 01:18:44;;;;;;;1.40;1.40;;;5.70;99.90;;;;;;5032975;28;20040;-75
2021/10/23 01:21:10;;;;;;;1.95;1.85;;;5.60;99.90;;;;;;5031769;28;20068;-75
2021/10/23 01:23:36;;;;;;;1.92;1.77;;;5.70;99.90;;;;;;5032969;28;20021;-75
2021/10/23 01:26:03;;;;;;;7.20;2.50;;;5.60;99.90;;;;;;5032872;28;20034;-76
2021/10/23 01:28:29;;;;;;;2.00;1.80;;;5.60;99.90;;;;;;5031604;28;20017;-75
2021/10/23 01:30:56;;;;;;;1.98;1.67;;;5.60;99.90;;;;;;5031609;28;20094;-75
2021/10/23 01:33:22;;;;;;;1.73;1.60;;;5.60;99.90;;;;;;5031670;28;20087;-74
2021/10/23 01:35:48;;;;;;;2.25;1.75;;;5.60;99.90;;;;;;5032809;28;20487;-75
2021/10/23 01:38:13;;;;;;;2.00;1.90;;;5.60;99.90;;;;;;5031484;28;20030;-75
2021/10/23 01:40:39;;;;;;;2.83;2.13;;;5.50;99.90;;;;;;5032787;28;20049;-74
2021/10/23 01:43:05;;;;;;;4.30;2.05;;;5.50;99.90;;;;;;5032839;28;20045;-75
2021/10/23 01:45:32;;;;;;;2.47;2.03;;;5.50;99.90;;;;;;5032722;28;20025;-75
2021/10/23 01:47:59;;;;;;;2.25;2.15;;;5.50;99.90;;;;;;5031409;28;20506;-76
2021/10/23 01:50:26;;;;;;;5.78;2.28;;;5.50;99.90;;;;;;5031400;28;20121;-75
2021/10/23 01:52:53;;;;;;;1.65;1.48;;;5.40;99.90;;;;;;5031378;28;20379;-75
2021/10/23 01:55:19;;;;;;;2.40;1.48;;;5.30;99.90;;;;;;5031277;28;20029;-75
2021/10/23 01:57:45;;;;;;;3.45;1.80;;;5.30;99.90;;;;;;5032664;28;20033;-75
2021/10/23 02:00:13;;;;;;;2.05;1.67;;;5.30;99.90;;;;;;5031247;28;20022;-75
2021/10/23 02:02:40;;;;;;;1.17;1.10;;;5.10;99.90;;;;;;5032516;28;20025;-76
2021/10/23 02:05:06;;;;;;;0.98;0.98;;;5.00;99.90;;;;;;5032550;28;20034;-75
2021/10/23 02:07:32;;;;;;;1.10;1.00;;;4.90;99.90;;;;;;5031293;28;20064;-75
2021/10/23 02:09:58;;;;;;;0.88;0.88;;;4.90;99.90;;;;;;5033555;28;20026;-75
2021/10/23 02:12:24;;;;;;;0.88;0.88;;;4.80;99.90;;;;;;5035264;28;20112;-75
2021/10/23 02:14:49;;;;;;;1.00;1.00;;;4.70;99.90;;;;;;5036242;28;20041;-75
2021/10/23 02:17:15;;;;;;;1.75;0.93;;;4.70;99.90;;;;;;5035140;28;20036;-76
2021/10/23 02:19:40;;;;;;;1.42;1.33;;;4.60;99.90;;;;;;5036201;28;20383;-75
2021/10/23 02:22:06;;;;;;;1.00;1.00;;;4.50;99.90;;;;;;5034958;28;20044;-75
2021/10/23 02:24:32;;;;;;;1.10;1.10;;;4.40;99.90;;;;;;5036144;28;20035;-75
2021/10/23 02:26:57;;;;;;;1.15;1.10;;;4.40;99.90;;;;;;5036210;28;20017;-75
2021/10/23 02:29:23;;;;;;;1.23;1.13;;;4.30;99.90;;;;;;5036077;28;20105;-75
2021/10/23 02:31:49;;;;;;;1.20;1.20;;;4.20;99.90;;;;;;5036019;28;20525;-76
2021/10/23 02:34:15;;;;;;;2.70;1.25;;;4.20;99.90;;;;;;5035962;28;20025;-75
2021/10/23 02:36:40;;;;;;;2.35;1.50;;;4.10;99.90;;;;;;5036001;28;20022;-75
2021/10/23 02:39:06;;;;;;;2.35;1.63;;;4.10;99.90;;;;;;5034644;28;20132;-74
2021/10/23 02:41:32;;;;;;;2.05;1.75;;;4.00;99.90;;;;;;5034708;28;20096;-75
2021/10/23 02:43:59;;;;;;;3.30;1.73;;;3.90;99.90;;;;;;5034489;28;20022;-74
2021/10/23 02:46:25;;;;;;;2.67;1.40;;;3.90;99.90;;;;;;5034615;28;20076;-74
2021/10/23 02:48:51;;;;;;;2.78;1.48;;;3.80;99.90;;;;;;5034363;28;20026;-74
2021/10/23 02:51:17;;;;;;;2.88;2.03;;;3.80;99.90;;;;;;5035750;28;20483;-75
2021/10/23 02:53:43;;;;;;;2.10;1.70;;;3.80;99.90;;;;;;5035628;28;20026;-74
2021/10/23 02:56:08;;;;;;;3.33;1.90;;;3.80;99.90;;;;;;5035569;28;20040;-75
2021/10/23 02:58:34;;;;;;;2.33;1.83;;;3.70;99.90;;;;;;5034266;28;20044;-74
2021/10/23 03:01:00;;;;;;;2.30;1.83;;;3.70;99.90;;;;;;5034247;28;20455;-74
2021/10/23 03:03:26;;;;;;;2.08;1.88;;;3.60;99.90;;;;;;5034312;28;20029;-75
2021/10/23 03:05:51;;;;;;;3.20;1.70;;;3.60;99.90;;;;;;5034141;28;20029;-75
2021/10/23 03:08:17;;;;;;;3.28;1.90;;;3.60;99.90;;;;;;5034147;28;20507;-75
2021/10/23 03:10:43;;;;;;;2.75;1.70;;;3.50;99.90;;;;;;5033982;28;20084;-75
2021/10/23 03:13:10;;;;;;;1.92;1.83;;;3.40;99.90;;;;;;5035321;28;20049;-75
2021/10/23 03:15:36;;;;;;;2.88;1.77;;;3.40;99.90;;;;;;5035011;28;20041;-75
2021/10/23 03:18:01;;;;;;;4.60;2.17;;;3.40;99.90;;;;;;5035153;28;20021;-75
2021/10/23 03:20:27;;;;;;;3.15;1.88;;;3.40;99.90;;;;;;5032837;28;20028;-74
2021/10/23 03:22:52;;;;;;;5.13;2.70;;;3.30;99.90;;;;;;5035057;28;20049;-75
2021/10/23 03:25:18;;;;;;;5.53;2.35;;;3.30;99.90;;;;;;5033816;28;20024;-75
2021/10/23 03:27:44;;;;;;;2.10;1.92;;;3.30;99.90;;;;;;5035089;28;20025;-75
2021/10/23 03:30:10;;;;;;;6.97;1.92;;;3.30;99.90;;;;;;5034867;28;20026;-75
2021/10/23 03:32:36;;;;;;;5.00;3.08;;;3.30;99.90;;;;;;5033748;28;20495;-75
2021/10/23 03:35:05;;;;;;;4.10;1.80;;;3.30;99.90;;;;;;5034715;28;20033;-74
2021/10/23 03:37:32;;;;;;;4.60;1.92;;;3.30;99.90;;;;;;5034871;28;20014;-75
2021/10/23 03:39:59;;;;;;;2.33;1.90;;;3.30;99.90;;;;;;5033446;28;20025;-74
2021/10/23 03:42:25;;;;;;;6.10;2.90;;;3.30;99.90;;;;;;5033606;28;20048;-74
2021/10/23 03:44:51;;;;;;;4.35;2.30;;;3.30;99.90;;;;;;5033363;28;20026;-74
2021/10/23 03:47:16;;;;;;;5.82;2.80;;;3.20;99.90;;;;;;5033514;28;20116;-75
2021/10/23 03:49:43;;;;;;;5.40;2.50;;;3.30;99.90;;;;;;5034528;28;20049;-74
2021/10/23 03:52:10;;;;;;;8.07;2.72;;;3.30;99.90;;;;;;5034569;28;20036;-74
2021/10/23 03:54:36;;;;;;;6.13;2.40;;;3.20;99.90;;;;;;5033170;28;20046;-74
2021/10/23 03:57:04;;;;;;;7.50;2.85;;;3.20;99.90;;;;;;5033213;28;20048;-75
2021/10/23 03:59:30;;;;;;;6.55;3.10;;;3.20;99.90;;;;;;5033133;28;20021;-74
2021/10/23 04:01:56;;;;;;;9.13;4.63;;;3.20;99.90;;;;;;5034242;28;20037;-74
2021/10/23 04:04:21;;;;;;;6.95;3.17;;;3.20;99.90;;;;;;5034400;28;20583;-75
2021/10/23 04:06:48;;;;;;;2.97;2.67;;;3.10;99.90;;;;;;5034346;28;20033;-75
2021/10/23 04:09:14;;;;;;;4.55;2.85;;;3.10;99.90;;;;;;5032962;28;20025;-74
2021/10/23 04:11:40;;;;;;;6.20;3.00;;;3.10;99.90;;;;;;5034010;28;20026;-75
2021/10/23 04:14:06;;;;;;;6.60;2.88;;;3.10;99.90;;;;;;5034304;28;20473;-74
2021/10/23 04:16:31;;;;;;;6.10;3.22;;;3.10;99.90;;;;;;5034082;28;20040;-75
2021/10/23 04:18:57;;;;;;;8.10;2.95;;;3.10;99.90;;;;;;5032695;28;20030;-74
2021/10/23 04:21:23;;;;;;;9.95;3.20;;;3.10;99.90;;;;;;5032759;28;20018;-75
2021/10/23 04:23:49;;;;;;;6.97;3.30;;;3.00;99.90;;;;;;5033847;28;20101;-75
2021/10/23 04:26:14;;;;;;;8.50;3.05;;;3.00;99.90;;;;;;5034112;28;20498;-76
2021/10/23 04:28:40;;;;;;;6.80;3.17;;;3.00;99.90;;;;;;5031072;28;20395;-75
2021/10/23 04:31:05;;;;;;;5.35;3.05;;;3.00;99.90;;;;;;5031303;28;20498;-74
2021/10/23 04:33:31;;;;;;;5.13;3.03;;;2.90;99.90;;;;;;5031481;28;20052;-74
2021/10/23 04:35:57;;;;;;;12.05;4.93;;;2.90;99.90;;;;;;5031862;28;20068;-75
2021/10/23 04:38:24;;;;;;;5.32;2.72;;;2.90;99.90;;;;;;5031660;28;20021;-74
2021/10/23 04:40:50;;;;;;;7.30;3.15;;;2.90;99.90;;;;;;5031597;28;20037;-75
2021/10/23 04:43:15;;;;;;;8.30;3.30;;;2.90;99.90;;;;;;5030232;28;20063;-75
2021/10/23 04:45:41;;;;;;;7.57;3.53;;;2.90;99.90;;;;;;5030110;28;20032;-75
2021/10/23 04:48:06;;;;;;;7.78;3.17;;;2.80;99.90;;;;;;5032611;28;20068;-74
2021/10/23 04:50:32;;;;;;;4.68;2.67;;;2.80;99.90;;;;;;5022824;28;20030;-74
2021/10/23 04:52:58;;;;;;;7.50;2.78;;;2.80;99.90;;;;;;5010317;28;20026;-75
2021/10/23 04:55:24;;;;;;;4.22;2.40;;;2.80;99.90;;;;;;5010224;28;20030;-75
2021/10/23 04:57:50;;;;;;;5.90;2.50;;;2.80;99.90;;;;;;5010238;28;20022;-75
2021/10/23 05:00:16;;;;;;;4.60;3.08;;;2.70;99.90;;;;;;5011497;28;20033;-74
2021/10/23 05:02:42;;;;;;;4.47;3.13;;;2.70;99.90;;;;;;5011860;28;20033;-75
2021/10/23 05:05:08;;;;;;;5.55;2.90;;;2.70;99.90;;;;;;5011471;28;20026;-75
2021/10/23 05:07:34;;;;;;;5.88;2.90;;;2.70;99.90;;;;;;5013521;28;20022;-75
2021/10/23 05:09:59;;;;;;;6.80;3.15;;;2.70;99.90;;;;;;5013063;28;20029;-74
2021/10/23 05:12:25;;;;;;;6.20;2.78;;;2.60;99.90;;;;;;5011442;28;20037;-75
2021/10/23 05:14:51;;;;;;;5.72;2.92;;;2.70;99.90;;;;;;5009992;28;20124;-74
2021/10/23 05:17:17;;;;;;;8.05;2.90;;;2.70;99.90;;;;;;5009933;28;20026;-76
2021/10/23 05:19:42;;;;;;;5.30;3.20;;;2.70;99.90;;;;;;5009859;28;20483;-74
2021/10/23 05:22:08;;;;;;;8.55;2.97;;;2.70;99.90;;;;;;5009634;28;20033;-75
2021/10/23 05:24:34;;;;;;;5.05;3.13;;;2.70;99.90;;;;;;5009341;28;20026;-74
2021/10/23 05:27:00;;;;;;;10.57;4.00;;;2.80;99.90;;;;;;5011395;28;20439;-74
2021/10/23 05:29:25;;;;;;;5.80;3.72;;;2.80;99.90;;;;;;5011952;28;20124;-75
2021/10/23 05:31:51;;;;;;;7.32;4.15;;;2.90;99.90;;;;;;5013150;28;20032;-75
2021/10/23 05:34:17;;;;;;;9.43;4.75;;;2.90;99.90;;;;;;5013027;28;20076;-74
2021/10/23 05:36:42;;;;;;;8.50;3.90;;;2.90;99.90;;;;;;5012887;28;20018;-74
2021/10/23 05:39:08;;;;;;;5.38;3.97;;;3.00;99.90;;;;;;5015585;28;20499;-74
2021/10/23 05:41:34;;;;;;;8.00;3.75;;;3.00;99.90;;;;;;5031418;28;20471;-75
2021/10/23 05:44:00;;;;;;;9.77;3.78;;;3.10;99.90;;;;;;5033558;28;20022;-75
2021/10/23 05:46:25;;;;;;;5.15;3.22;;;3.10;99.90;;;;;;5036817;28;20479;-75
2021/10/23 05:48:51;;;;;;;7.32;4.13;;;3.20;99.90;;;;;;5036733;28;20072;-74
2021/10/23 05:51:17;;;;;;;5.47;3.45;;;3.10;99.90;;;;;;5028088;28;20022;-74
2021/10/23 05:53:42;;;;;;;7.55;3.75;;;3.20;99.90;;;;;;5018110;28;20028;-75
2021/10/23 05:56:08;;;;;;;11.70;4.40;;;3.20;99.90;;;;;;5025659;28;20030;-74
2021/10/23 05:58:34;;;;;;;11.40;4.60;;;3.20;99.90;;;;;;5035460;28;20057;-74
2021/10/23 06:01:07;;;;;;;6.97;4.50;;;3.30;99.90;;;;;;5035328;28;20360;-74
2021/10/23 06:03:35;;;;;;;10.35;4.68;;;3.30;99.90;;;;;;5036638;28;20024;-74
2021/10/23 06:06:06;;;;;;;14.60;5.57;;;3.40;99.90;;;;;;5035260;28;20498;-74
2021/10/23 06:08:34;;;;;;;7.57;3.50;;;3.40;99.90;;;;;;5035168;28;20483;-74
2021/10/23 06:10:59;;;;;;;7.13;3.25;;;3.50;99.90;;;;;;5036475;28;20490;-75
2021/10/23 06:13:26;;;;;;;8.32;3.15;;;3.60;99.90;;;;;;5035155;28;20030;-74
2021/10/23 06:15:52;;;;;;;8.05;2.85;;;3.60;99.90;;;;;;5036308;28;20481;-75
2021/10/23 06:18:18;;;;;;;5.50;2.90;;;3.60;99.90;;;;;;5036418;28;20044;-75
2021/10/23 06:20:45;;;;;;;6.13;3.53;;;3.80;99.90;;;;;;5019901;28;20057;-75
2021/10/23 06:23:11;;;;;;;6.90;2.78;;;3.80;99.90;;;;;;5034896;28;20061;-75
2021/10/23 06:25:36;;;;;;;6.10;2.78;;;3.90;99.90;;;;;;5034982;28;20056;-75
2021/10/23 06:28:03;;;;;;;8.57;2.80;;;4.00;99.90;;;;;;5036179;28;20104;-76
2021/10/23 06:30:28;;;;;;;3.90;2.70;;;4.10;99.90;;;;;;5025885;28;20021;-75
2021/10/23 06:32:56;;;;;;;8.75;3.42;;;4.10;99.90;;;;;;5025372;28;20036;-75
2021/10/23 06:35:23;;;;;;;5.28;3.00;;;4.30;99.90;;;;;;5025294;28;20036;-75
2021/10/23 06:37:50;;;;;;;8.40;2.78;;;4.40;99.90;;;;;;5022526;28;20056;-76
2021/10/23 06:40:16;;;;;;;4.38;2.88;;;4.40;99.90;;;;;;5023179;28;20054;-75
2021/10/23 06:42:43;;;;;;;6.10;2.50;;;4.50;99.90;;;;;;5027190;28;20014;-75
2021/10/23 06:45:11;;;;;;;10.55;2.78;;;4.60;99.90;;;;;;5023751;28;20032;-75
2021/10/23 06:47:37;;;;;;;10.50;3.90;;;4.70;99.90;;;;;;5027612;28;20040;-75
2021/10/23 06:50:07;;;;;;;6.10;3.25;;;4.80;99.90;;;;;;5027843;28;20064;-75
2021/10/23 06:52:34;;;;;;;8.32;3.10;;;4.80;99.90;;;;;;5019720;28;20155;-75
2021/10/23 06:55:00;;;;;;;7.93;3.50;;;4.90;99.90;;;;;;5020812;28;20625;-75
2021/10/23 06:57:25;;;;;;;6.65;2.72;;;4.90;99.90;;;;;;5023109;28;20106;-75
2021/10/23 06:59:52;;;;;;;8.43;4.10;;;5.00;99.90;;;;;;5023439;28;20021;-75
2021/10/23 07:02:18;;;;;;;6.97;3.35;;;5.10;99.90;;;;;;5019896;28;20030;-75
2021/10/23 07:04:44;;;;;;;3.70;2.70;;;5.10;99.90;;;;;;5014468;28;20045;-75
2021/10/23 07:07:10;;;;;;;4.53;3.05;;;5.20;99.90;;;;;;5015705;28;20096;-74
2021/10/23 07:09:35;;;;;;;4.72;2.88;;;5.30;99.90;;;;;;5025684;28;20538;-75
2021/10/23 07:12:01;;;;;;;5.18;3.30;;;5.30;99.90;;;;;;5022641;28;20022;-75
2021/10/23 07:14:27;;;;;;;10.38;4.35;;;5.30;99.90;;;;;;5022480;28;20113;-74
2021/10/23 07:16:53;;;;;;;6.40;2.95;;;5.30;99.90;;;;;;5015451;28;20045;-75
2021/10/23 07:19:18;;;;;;;10.05;3.55;;;5.40;99.90;;;;;;5023821;28;20026;-74
2021/10/23 07:21:44;;;;;;;9.07;3.20;;;5.30;99.90;;;;;;5023812;28;20117;-75
2021/10/23 07:24:10;;;;;;;9.65;3.70;;;5.40;99.90;;;;;;5022527;28;20026;-74
2021/10/23 07:26:36;;;;;;;7.68;2.70;;;5.50;99.90;;;;;;5025223;28;20117;-75
2021/10/23 07:29:05;;;;;;;7.18;3.17;;;5.60;99.90;;;;;;5025099;28;20060;-74
2021/10/23 07:31:31;;;;;;;10.27;2.90;;;5.70;99.90;;;;;;5025442;28;20018;-74
2021/10/23 07:33:57;;;;;;;9.00;3.25;;;5.70;99.90;;;;;;5033488;28;20540;-74
2021/10/23 07:36:23;;;;;;;8.60;3.60;;;5.80;99.90;;;;;;5033875;28;20040;-74
2021/10/23 07:38:49;;;;;;;9.77;3.70;;;5.80;99.90;;;;;;5034709;28;20026;-74
2021/10/23 07:41:16;;;;;;;10.32;3.63;;;5.90;99.90;;;;;;5032052;28;20030;-75
2021/10/23 07:43:42;;;;;;;5.25;2.58;;;5.90;99.90;;;;;;5013757;28;20485;-74
2021/10/23 07:46:08;;;;;;;11.90;3.72;;;5.90;99.90;;;;;;5014785;28;20034;-75
2021/10/23 07:48:35;;;;;;;4.80;3.42;;;5.90;99.90;;;;;;5014692;28;20030;-74
2021/10/23 07:51:03;;;;;;;9.48;2.88;;;5.90;99.90;;;;;;5013523;28;20046;-74
2021/10/23 07:53:29;;;;;;;6.47;2.42;;;5.90;99.90;;;;;;5014887;28;20018;-73
2021/10/23 07:55:55;;;;;;;10.55;3.67;;;5.90;99.90;;;;;;5014648;28;20038;-74
2021/10/23 07:58:21;;;;;;;7.93;3.03;;;6.00;99.90;;;;;;5013523;28;20393;-73
2021/10/23 08:00:48;;;;;;;7.93;2.60;;;6.10;99.90;;;;;;5013282;28;20095;-74
2021/10/23 08:03:14;;;;;;;4.97;2.55;;;6.20;99.90;;;;;;5014697;28;20034;-75
2021/10/23 08:05:39;;;;;;;12.70;3.40;;;6.30;99.90;;;;;;5014480;28;20424;-75
2021/10/23 08:08:06;;;;;;;7.72;2.20;;;6.30;99.90;;;;;;5014025;28;20074;-75
2021/10/23 08:10:33;;;;;;;10.68;3.35;;;6.50;99.90;;;;;;5014562;28;20031;-74
2021/10/23 08:13:01;;;;;;;8.93;2.65;;;6.50;99.90;;;;;;5017170;28;20025;-74
2021/10/23 08:15:27;;;;;;;8.52;2.30;;;6.60;99.90;;;;;;5028304;28;20049;-75
2021/10/23 08:17:54;;;;;;;10.23;2.75;;;6.70;99.90;;;;;;5030274;28;20055;-74
2021/10/23 08:20:20;;;;;;;5.18;2.60;;;6.80;99.90;;;;;;5031561;28;20379;-76
2021/10/23 08:22:46;;;;;;;6.90;2.78;;;7.00;99.90;;;;;;5030253;28;20032;-74
2021/10/23 08:25:13;;;;;;;7.43;3.00;;;7.00;99.90;;;;;;5031557;28;20044;-74
2021/10/23 08:27:42;;;;;;;7.47;2.80;;;7.10;99.90;;;;;;5029549;28;20093;-75
2021/10/23 08:30:11;;;;;;;10.57;2.95;;;7.20;98.30;;;;;;5030150;28;20471;-74
2021/10/23 08:32:38;;;;;;;7.82;3.42;;;7.20;97.00;;;;;;5030162;28;20021;-74
2021/10/23 08:35:05;;;;;;;9.75;2.88;;;7.20;97.10;;;;;;5030675;28;20045;-74
2021/10/23 08:37:30;;;;;;;8.15;2.38;;;7.20;96.60;;;;;;5025184;28;20022;-75
2021/10/23 08:39:56;;;;;;;6.40;2.67;;;7.20;97.00;;;;;;5030123;28;20124;-75
2021/10/23 08:42:22;;;;;;;7.22;2.92;;;7.30;96.70;;;;;;5030935;28;20037;-75
2021/10/23 08:44:48;;;;;;;10.15;2.97;;;7.40;94.50;;;;;;5030693;28;20067;-74
2021/10/23 08:47:15;;;;;;;5.03;2.40;;;7.60;95.00;;;;;;5031882;28;20018;-74
2021/10/23 08:49:43;;;;;;;9.57;3.42;;;7.50;89.70;;;;;;5029704;28;20092;-75
2021/10/23 08:52:09;;;;;;;6.40;2.65;;;7.70;90.70;;;;;;5029872;28;20029;-74
2021/10/23 08:54:35;;;;;;;10.02;3.15;;;7.70;90.50;;;;;;5030813;28;20403;-75
2021/10/23 08:57:02;;;;;;;7.18;2.65;;;7.60;89.70;;;;;;5030428;28;20064;-74
2021/10/23 08:59:31;;;;;;;11.27;3.03;;;7.50;88.30;;;;;;5030442;28;20037;-74
2021/10/23 09:01:59;;;;;;;7.18;2.90;;;7.80;88.70;;;;;;5031127;28;20108;-75
2021/10/23 09:04:29;;;;;;;10.95;2.97;;;7.80;87.90;;;;;;5030136;28;20498;-75
2021/10/23 09:07:12;;;;;;;6.13;2.42;;;7.80;88.80;;;;;;5029812;28;20531;-76
2021/10/23 09:09:47;;;;;;;5.57;2.90;;;7.90;87.80;;;;;;5031082;28;20038;-75
2021/10/23 09:12:20;;;;;;;8.07;3.05;;;8.10;83.90;;;;;;5031645;28;20026;-75
2021/10/23 09:14:48;;;;;;;9.55;3.00;;;8.40;84.70;;;;;;5029216;28;20087;-75
2021/10/23 09:17:15;;;;;;;11.45;2.95;;;8.30;83.10;;;;;;5031529;28;20017;-75
2021/10/23 09:19:48;;;;;;;7.72;2.47;;;8.40;82.50;;;;;;5028377;28;20033;-75
2021/10/23 09:22:32;;;;;;;10.40;2.40;;;8.10;79.00;;;;;;5030948;28;20021;-75
2021/10/23 09:25:23;;;;;;;11.43;2.58;;;7.90;79.10;;;;;;5020456;28;20045;-74
2021/10/23 09:28:00;;;;;;;7.70;2.35;;;7.80;81.20;;;;;;5009368;28;20030;-74
2021/10/23 09:30:59;;;;;;;4.95;2.10;;;7.70;80.10;;;;;;5010345;28;20049;-74
2021/10/23 09:33:27;;;;;;;5.00;2.60;;;7.80;82.00;;;;;;4999622;28;20065;-74
2021/10/23 09:35:55;;;;;;;10.68;3.58;;;7.70;80.50;;;;;;5015150;28;20124;-75
2021/10/23 09:38:25;;;;;;;7.20;2.97;;;7.70;81.00;;;;;;5016838;28;20025;-75
2021/10/23 09:40:53;;;;;;;10.82;2.60;;;7.80;82.00;;;;;;5010118;28;20030;-74
2021/10/23 09:43:19;;;;;;;6.47;3.22;;;7.90;83.00;;;;;;5018476;28;20014;-74
2021/10/23 09:46:00;;;;;;;8.15;3.33;;;8.00;81.30;;;;;;5019278;28;20036;-73
2021/10/23 09:48:49;;;;;;;4.50;2.80;;;8.10;82.70;;;;;;5019159;28;20022;-73
2021/10/23 09:51:27;;;;;;;5.90;3.38;;;8.10;82.60;;;;;;5019520;28;20037;-73
2021/10/23 09:53:58;;;;;;;7.80;3.08;;;8.20;81.20;;;;;;5017603;28;20034;-73
2021/10/23 09:56:37;;;;;;;8.95;3.00;;;8.30;80.50;;;;;;5020219;28;20042;-73
2021/10/23 09:59:08;;;;;;;11.05;2.92;;;8.40;80.10;;;;;;5018107;28;20021;-73
2021/10/23 10:01:42;;;;;;;8.30;2.67;;;8.50;81.50;;;;;;5018309;28;20383;-74
2021/10/23 10:04:13;;;;;;;13.23;4.10;;;8.50;79.70;;;;;;5018127;28;20014;-73
2021/10/23 10:06:49;;;;;;;8.23;2.35;;;8.50;77.80;;;;;;5017006;28;20037;-73
2021/10/23 10:09:18;;;;;;;6.40;2.25;;;8.20;72.60;;;;;;5015217;28;20025;-73
2021/10/23 10:11:47;;;;;;;9.18;2.97;;;8.20;72.90;;;;;;5018299;28;20049;-72
2021/10/23 10:14:13;;;;;;;9.18;2.75;;;8.20;75.80;;;;;;4993758;28;20030;-73
2021/10/23 10:16:45;;;;;;;8.48;2.38;;;8.20;74.50;;;;;;5014753;28;20192;-73
2021/10/23 10:19:13;;;;;;;7.78;2.60;;;8.20;74.50;;;;;;5018540;28;20380;-74
2021/10/23 10:21:40;;;;;;;6.55;2.97;;;8.30;76.30;;;;;;5023789;28;20120;-73
2021/10/23 10:24:16;;;;;;;9.50;2.90;;;8.30;76.20;;;;;;5029998;28;20030;-73
2021/10/23 10:27:00;;;;;;;16.63;3.33;;;8.40;77.20;;;;;;5020272;28;20037;-74
2021/10/23 10:29:41;;;;;;;7.47;2.80;;;8.40;76.30;;;;;;5020198;28;20470;-73
2021/10/23 10:32:23;;;;;;;13.20;3.67;;;8.50;75.40;;;;;;5033463;28;20075;-72
2021/10/23 10:35:10;;;;;;;6.88;2.85;;;8.60;75.20;;;;;;5033358;28;20037;-74
2021/10/23 10:43:15;;;;;;;9.85;3.13;;;9.00;71.60;;;;;;5034100;28;20471;-73
2021/10/23 10:45:41;;;;;;;9.43;3.22;;;9.00;70.00;;;;;;5032749;28;20029;-73
2021/10/23 10:48:07;;;;;;;8.82;3.05;;;8.90;69.90;;;;;;5033928;28;20013;-73
2021/10/23 10:50:43;;;;;;;5.38;2.45;;;8.90;69.90;;;;;;5032452;28;20494;-74
2021/10/23 10:53:29;;;;;;;13.13;2.88;;;8.90;70.80;;;;;;5034081;28;20464;-73
2021/10/23 10:56:15;;;;;;;10.80;2.72;;;8.90;70.20;;;;;;5024033;28;20119;-74
2021/10/23 10:58:45;;;;;;;7.97;4.28;;;8.90;69.50;;;;;;5018487;28;20025;-73
2021/10/23 11:01:25;;;;;;;3.90;1.95;;;9.00;69.90;;;;;;5023420;28;20130;-73
2021/10/23 11:03:51;;;;;;;9.02;2.40;;;9.00;68.80;;;;;;5026030;28;20025;-72
2021/10/23 11:06:35;;;;;;;6.60;2.70;;;8.90;68.70;;;;;;5031875;28;20506;-73
2021/10/23 11:09:15;;;;;;;9.98;4.28;;;9.00;69.70;;;;;;5030713;28;20044;-73
2021/10/23 11:11:43;;;;;;;12.25;2.70;;;8.90;69.40;;;;;;5032186;28;20548;-73
2021/10/23 11:14:21;;;;;;;6.30;3.10;;;8.80;70.30;;;;;;5032946;28;20061;-73
2021/10/23 11:16:51;;;;;;;6.55;2.85;;;8.90;72.30;;;;;;5030343;28;20438;-73
2021/10/23 11:19:25;;;;;;;8.52;2.72;;;9.00;73.10;;;;;;5032834;28;20096;-73
2021/10/23 11:22:14;;;;;;;7.07;2.55;;;9.00;71.90;;;;;;5031859;28;20506;-72
2021/10/23 11:24:42;;;;;;;6.20;2.92;;;9.20;71.40;;;;;;5030567;28;20100;-73
2021/10/23 11:27:08;;;;;;;10.25;2.58;;;9.30;70.70;;;;;;5033338;28;20025;-75
2021/10/23 11:29:35;;;;;;;9.93;2.85;;;9.20;69.00;;;;;;5022392;28;20018;-73
2021/10/23 11:32:01;;;;;;;12.25;5.25;;;9.40;68.00;;;;;;5019868;28;20038;-73
2021/10/23 11:34:35;;;;;;;7.18;2.50;;;9.40;66.90;;;;;;5022243;28;20057;-73
2021/10/23 11:37:10;;;;;;;7.43;2.65;;;9.50;67.40;;;;;;5023760;28;20037;-73
2021/10/23 11:39:40;;;;;;;7.60;3.72;;;9.40;68.30;;;;;;5032474;28;20033;-74
2021/10/23 11:42:28;;;;;;;9.95;4.28;;;9.20;68.80;;;;;;5032227;28;20060;-73
2021/10/23 11:44:59;;;;;;;12.38;5.90;;;9.10;69.00;;;;;;5032150;28;20382;-74
2021/10/23 11:47:26;;;;;;;8.90;5.20;;;9.00;70.30;;;;;;5031796;28;20442;-73
2021/10/23 11:49:55;;;;;;;6.03;3.72;;;9.00;71.50;;;;;;5031730;28;20284;-73
2021/10/23 11:52:27;;;;;;;13.02;3.65;;;9.10;70.90;;;;;;5032815;28;20038;-73
2021/10/23 11:54:54;;;;;;;13.68;3.10;;;9.30;71.90;;;;;;5030728;28;20033;-73
2021/10/23 11:57:38;;;;;;;12.13;3.45;;;9.60;71.90;;;;;;5032875;28;20038;-73
2021/10/23 12:00:12;;;;;;;7.70;2.83;;;9.50;68.70;;;;;;5032519;28;20029;-73
2021/10/23 12:03:00;;;;;;;5.32;2.53;;;9.50;69.20;;;;;;5032408;28;20430;-74
2021/10/23 12:05:36;;;;;;;8.10;3.05;;;9.50;68.90;;;;;;5031995;28;20036;-73
2021/10/23 12:08:34;;;;;;;7.75;2.85;;;9.60;68.00;;;;;;5029537;28;20108;-73
2021/10/23 12:11:23;;;;;;;9.57;3.50;;;9.60;69.40;;;;;;5016976;28;20096;-74
2021/10/23 12:14:00;;;;;;;11.18;5.22;;;9.60;69.00;;;;;;5019554;28;20033;-73
2021/10/23 12:16:29;;;;;;;6.35;2.80;;;9.60;70.20;;;;;;5017341;28;20045;-73
2021/10/23 12:19:34;;;;;;;10.93;2.70;;;9.60;70.50;;;;;;5022315;28;20032;-73
2021/10/23 12:22:05;;;;;;;8.90;3.85;;;9.60;71.00;;;;;;4997270;28;20350;-73
2021/10/23 12:24:32;;;;;;;10.27;2.85;;;9.30;70.80;;;;;;5021253;28;20061;-74
2021/10/23 12:27:10;;;;;;;8.70;3.38;;;9.10;72.70;;;;;;5029989;28;20550;-74
2021/10/23 12:29:40;;;;;;;7.53;2.90;;;9.00;73.80;;;;;;5018752;28;20532;-74
2021/10/23 12:32:13;;;;;;;7.03;2.78;;;8.80;72.20;;;;;;5019371;28;20037;-73
2021/10/23 12:34:49;;;;;;;5.57;2.17;;;8.70;73.40;;;;;;5020175;28;20483;-73
2021/10/23 12:37:27;;;;;;;5.03;2.47;;;8.50;73.90;;;;;;5021456;28;20483;-73
2021/10/23 12:40:05;;;;;;;8.32;3.53;;;8.50;75.20;;;;;;5024585;28;20170;-73
2021/10/23 12:42:33;;;;;;;5.95;2.30;;;8.10;82.50;;;;;;5022758;28;20121;-74
2021/10/23 12:44:58;;;;;;;5.18;2.50;;;7.10;99.90;;;;;;5026750;28;20025;-73
2021/10/23 12:47:24;;;;;;;7.93;3.20;;;6.20;99.90;;;;;;5024243;28;20041;-73
2021/10/23 12:49:50;;;;;;;6.50;3.05;;;6.00;99.90;;;;;;5025127;28;20557;-73
2021/10/23 12:52:15;;;;;;;7.03;3.95;;;6.00;99.90;;;;;;5017727;28;20117;-74
2021/10/23 12:54:41;;;;;;;33.10;20.35;;;6.10;99.90;;;;;;5018026;28;20033;-73
2021/10/23 12:57:06;;;;;;;39.28;23.40;;;6.20;99.90;;;;;;5023570;28;20049;-73
2021/10/23 12:59:32;;;;;;;19.35;11.45;;;6.20;99.90;;;;;;5017117;28;20407;-73
2021/10/23 13:01:58;;;;;;;27.98;17.20;;;6.30;99.90;;;;;;5023513;28;20077;-74
2021/10/23 13:04:24;;;;;;;47.75;25.25;;;6.30;99.90;;;;;;5024058;28;20506;-73
2021/10/23 13:06:55;;;;;;;47.72;26.55;;;6.30;99.90;;;;;;5022762;28;20454;-74